sensor_id;sensor_type;location;lat;lon;timestamp;temperature;humidity
52321;DHT22;38261;54.090;13.382;2023-04-15T00:00:57;7.50;99.90
52321;DHT22;38261;54.090;13.382;2023-04-15T00:02:20;7.50;99.90
52321;DHT22;38261;54.090;13.382;2023-04-15T00:03:43;7.50;99.90
52321;DHT22;38261;54.090;13.382;2023-04-15T00:05:05;7.50;99.90
52321;DHT22;38261;54.090;13.382;2023-04-15T00:06:27;7.50;99.90
52321;DHT22;38261;54.090;13.382;2023-04-15T00:07:49;7.50;99.90
52321;DHT22;38261;54.090;13.382;2023-04-15T00:09:12;7.40;99.90
52321;DHT22;38261;54.090;13.382;2023-04-15T00:10:34;7.40;99.90
52321;DHT22;38261;54.090;13.382;2023-04-15T00:11:56;7.50;99.90
52321;DHT22;38261;54.090;13.382;2023-04-15T00:13:18;7.50;99.90
52321;DHT22;38261;54.090;13.382;2023-04-15T00:14:41;7.50;99.90
52321;DHT22;38261;54.090;13.382;2023-04-15T00:16:03;7.40;99.90
52321;DHT22;38261;54.090;13.382;2023-04-15T00:17:25;7.40;99.90
52321;DHT22;38261;54.090;13.382;2023-04-15T00:18:48;7.40;99.90
52321;DHT22;38261;54.090;13.382;2023-04-15T00:20:10;7.40;99.90
52321;DHT22;38261;54.090;13.382;2023-04-15T00:21:32;7.40;99.90
52321;DHT22;38261;54.090;13.382;2023-04-15T00:22:54;7.40;99.90
52321;DHT22;38261;54.090;13.382;2023-04-15T00:24:16;7.40;99.90
52321;DHT22;38261;54.090;13.382;2023-04-15T00:25:39;7.40;99.90
52321;DHT22;38261;54.090;13.382;2023-04-15T00:27:01;7.40;99.90
52321;DHT22;38261;54.090;13.382;2023-04-15T00:28:24;7.40;99.90
52321;DHT22;38261;54.090;13.382;2023-04-15T00:29:46;7.40;99.90
52321;DHT22;38261;54.090;13.382;2023-04-15T00:31:08;7.40;99.90
52321;DHT22;38261;54.090;13.382;2023-04-15T00:32:30;7.40;99.90
52321;DHT22;38261;54.090;13.382;2023-04-15T00:33:52;7.40;99.90
52321;DHT22;38261;54.090;13.382;2023-04-15T00:35:15;7.40;99.90
52321;DHT22;38261;54.090;13.382;2023-04-15T00:36:37;7.40;99.90
52321;DHT22;38261;54.090;13.382;2023-04-15T00:37:59;7.40;99.90
52321;DHT22;38261;54.090;13.382;2023-04-15T00:39:21;7.40;99.90
52321;DHT22;38261;54.090;13.382;2023-04-15T00:40:43;7.40;99.90
52321;DHT22;38261;54.090;13.382;2023-04-15T00:42:06;7.40;99.90
52321;DHT22;38261;54.090;13.382;2023-04-15T00:43:28;7.40;99.90
52321;DHT22;38261;54.090;13.382;2023-04-15T00:44:50;7.40;99.90
52321;DHT22;38261;54.090;13.382;2023-04-15T00:46:15;7.40;99.90
52321;DHT22;38261;54.090;13.382;2023-04-15T00:47:40;7.40;99.90
52321;DHT22;38261;54.090;13.382;2023-04-15T00:49:05;7.40;99.90
52321;DHT22;38261;54.090;13.382;2023-04-15T00:50:27;7.40;99.90
52321;DHT22;38261;54.090;13.382;2023-04-15T00:51:49;7.30;99.90
52321;DHT22;38261;54.090;13.382;2023-04-15T00:53:11;7.40;99.90
52321;DHT22;38261;54.090;13.382;2023-04-15T00:54:33;7.40;99.90
52321;DHT22;38261;54.090;13.382;2023-04-15T00:55:55;7.30;99.90
52321;DHT22;38261;54.090;13.382;2023-04-15T00:57:18;7.40;99.90
52321;DHT22;38261;54.090;13.382;2023-04-15T00:58:41;7.40;99.90
52321;DHT22;38261;54.090;13.382;2023-04-15T01:00:03;7.40;99.90
52321;DHT22;38261;54.090;13.382;2023-04-15T01:01:29;7.30;99.90
52321;DHT22;38261;54.090;13.382;2023-04-15T01:02:51;7.30;99.90
52321;DHT22;38261;54.090;13.382;2023-04-15T01:04:15;7.30;99.90
52321;DHT22;38261;54.090;13.382;2023-04-15T01:05:37;7.30;99.90
52321;DHT22;38261;54.090;13.382;2023-04-15T01:07:00;7.30;99.90
52321;DHT22;38261;54.090;13.382;2023-04-15T01:08:22;7.30;99.90
52321;DHT22;38261;54.090;13.382;2023-04-15T01:09:44;7.30;99.90
52321;DHT22;38261;54.090;13.382;2023-04-15T01:11:07;7.30;99.90
52321;DHT22;38261;54.090;13.382;2023-04-15T01:12:31;7.30;99.90
52321;DHT22;38261;54.090;13.382;2023-04-15T01:13:55;7.30;99.90
52321;DHT22;38261;54.090;13.382;2023-04-15T01:15:19;7.30;99.90
52321;DHT22;38261;54.090;13.382;2023-04-15T01:16:41;7.30;99.90
52321;DHT22;38261;54.090;13.382;2023-04-15T01:18:03;7.20;99.90
52321;DHT22;38261;54.090;13.382;2023-04-15T01:19:26;7.30;99.90
52321;DHT22;38261;54.090;13.382;2023-04-15T01:20:48;7.30;99.90
52321;DHT22;38261;54.090;13.382;2023-04-15T01:22:10;7.20;99.90
52321;DHT22;38261;54.090;13.382;2023-04-15T01:23:35;7.20;99.90
52321;DHT22;38261;54.090;13.382;2023-04-15T01:25:06;7.20;99.90
52321;DHT22;38261;54.090;13.382;2023-04-15T01:26:29;7.20;99.90
52321;DHT22;38261;54.090;13.382;2023-04-15T01:27:51;7.20;99.90
52321;DHT22;38261;54.090;13.382;2023-04-15T01:29:13;7.20;99.90
52321;DHT22;38261;54.090;13.382;2023-04-15T01:30:36;7.20;99.90
52321;DHT22;38261;54.090;13.382;2023-04-15T01:31:58;7.20;99.90
52321;DHT22;38261;54.090;13.382;2023-04-15T01:33:21;7.20;99.90
52321;DHT22;38261;54.090;13.382;2023-04-15T01:34:43;7.20;99.90
52321;DHT22;38261;54.090;13.382;2023-04-15T01:36:06;7.20;99.90
52321;DHT22;38261;54.090;13.382;2023-04-15T01:37:29;7.20;99.90
52321;DHT22;38261;54.090;13.382;2023-04-15T01:38:51;7.20;99.90
52321;DHT22;38261;54.090;13.382;2023-04-15T01:40:13;7.20;99.90
52321;DHT22;38261;54.090;13.382;2023-04-15T01:41:36;7.20;99.90
52321;DHT22;38261;54.090;13.382;2023-04-15T01:42:58;7.20;99.90
52321;DHT22;38261;54.090;13.382;2023-04-15T01:44:20;7.20;99.90
52321;DHT22;38261;54.090;13.382;2023-04-15T01:45:42;7.20;99.90
52321;DHT22;38261;54.090;13.382;2023-04-15T01:47:04;7.20;99.90
52321;DHT22;38261;54.090;13.382;2023-04-15T01:48:27;7.20;99.90
52321;DHT22;38261;54.090;13.382;2023-04-15T01:49:49;7.20;99.90
52321;DHT22;38261;54.090;13.382;2023-04-15T01:51:12;7.20;99.90
52321;DHT22;38261;54.090;13.382;2023-04-15T01:52:34;7.10;99.90
52321;DHT22;38261;54.090;13.382;2023-04-15T01:53:56;7.10;99.90
52321;DHT22;38261;54.090;13.382;2023-04-15T01:55:18;7.10;99.90
52321;DHT22;38261;54.090;13.382;2023-04-15T01:56:40;7.10;99.90
52321;DHT22;38261;54.090;13.382;2023-04-15T01:58:03;7.10;99.90
52321;DHT22;38261;54.090;13.382;2023-04-15T01:59:25;7.10;99.90
52321;DHT22;38261;54.090;13.382;2023-04-15T02:00:48;7.10;99.90
52321;DHT22;38261;54.090;13.382;2023-04-15T02:02:10;7.10;99.90
52321;DHT22;38261;54.090;13.382;2023-04-15T02:03:33;7.10;99.90
52321;DHT22;38261;54.090;13.382;2023-04-15T02:04:55;7.20;99.90
52321;DHT22;38261;54.090;13.382;2023-04-15T02:06:17;7.20;99.90
52321;DHT22;38261;54.090;13.382;2023-04-15T02:07:39;7.20;99.90
52321;DHT22;38261;54.090;13.382;2023-04-15T02:09:04;7.20;99.90
52321;DHT22;38261;54.090;13.382;2023-04-15T02:10:26;7.20;99.90
52321;DHT22;38261;54.090;13.382;2023-04-15T02:11:50;7.20;99.90
52321;DHT22;38261;54.090;13.382;2023-04-15T02:13:12;7.20;99.90
52321;DHT22;38261;54.090;13.382;2023-04-15T02:14:34;7.30;99.90
52321;DHT22;38261;54.090;13.382;2023-04-15T02:15:58;7.30;99.90
52321;DHT22;38261;54.090;13.382;2023-04-15T02:17:20;7.30;99.90
52321;DHT22;38261;54.090;13.382;2023-04-15T02:18:45;7.40;99.90
52321;DHT22;38261;54.090;13.382;2023-04-15T02:20:09;7.40;99.90
52321;DHT22;38261;54.090;13.382;2023-04-15T02:21:35;7.40;99.90
52321;DHT22;38261;54.090;13.382;2023-04-15T02:22:57;7.40;99.90
52321;DHT22;38261;54.090;13.382;2023-04-15T02:24:19;7.40;99.90
52321;DHT22;38261;54.090;13.382;2023-04-15T02:25:41;7.50;99.90
52321;DHT22;38261;54.090;13.382;2023-04-15T02:27:15;7.50;99.90
52321;DHT22;38261;54.090;13.382;2023-04-15T02:28:38;7.50;99.90
52321;DHT22;38261;54.090;13.382;2023-04-15T02:30:01;7.50;99.90
52321;DHT22;38261;54.090;13.382;2023-04-15T02:31:23;7.50;99.90
52321;DHT22;38261;54.090;13.382;2023-04-15T02:32:46;7.50;99.90
52321;DHT22;38261;54.090;13.382;2023-04-15T02:34:09;7.50;99.90
52321;DHT22;38261;54.090;13.382;2023-04-15T02:35:31;7.50;99.90
52321;DHT22;38261;54.090;13.382;2023-04-15T02:36:53;7.50;99.90
52321;DHT22;38261;54.090;13.382;2023-04-15T02:38:18;7.50;99.90
52321;DHT22;38261;54.090;13.382;2023-04-15T02:39:40;7.50;99.90
52321;DHT22;38261;54.090;13.382;2023-04-15T02:41:02;7.50;99.90
52321;DHT22;38261;54.090;13.382;2023-04-15T02:42:24;7.50;99.90
52321;DHT22;38261;54.090;13.382;2023-04-15T02:43:48;7.50;99.90
52321;DHT22;38261;54.090;13.382;2023-04-15T02:45:10;7.50;99.90
52321;DHT22;38261;54.090;13.382;2023-04-15T02:46:33;7.50;99.90
52321;DHT22;38261;54.090;13.382;2023-04-15T02:47:55;7.50;99.90
52321;DHT22;38261;54.090;13.382;2023-04-15T02:49:18;7.50;99.90
52321;DHT22;38261;54.090;13.382;2023-04-15T02:50:40;7.50;99.90
52321;DHT22;38261;54.090;13.382;2023-04-15T02:52:02;7.50;99.90
52321;DHT22;38261;54.090;13.382;2023-04-15T02:53:24;7.50;99.90
52321;DHT22;38261;54.090;13.382;2023-04-15T02:54:46;7.50;99.90
52321;DHT22;38261;54.090;13.382;2023-04-15T02:56:09;7.50;99.90
52321;DHT22;38261;54.090;13.382;2023-04-15T02:57:32;7.50;99.90
52321;DHT22;38261;54.090;13.382;2023-04-15T02:58:54;7.50;99.90
52321;DHT22;38261;54.090;13.382;2023-04-15T03:00:17;7.50;99.90
52321;DHT22;38261;54.090;13.382;2023-04-15T03:01:39;7.50;99.90
52321;DHT22;38261;54.090;13.382;2023-04-15T03:03:02;7.50;99.90
52321;DHT22;38261;54.090;13.382;2023-04-15T03:04:25;7.40;99.90
52321;DHT22;38261;54.090;13.382;2023-04-15T03:05:47;7.40;99.90
52321;DHT22;38261;54.090;13.382;2023-04-15T03:07:10;7.50;99.90
52321;DHT22;38261;54.090;13.382;2023-04-15T03:08:32;7.40;99.90
52321;DHT22;38261;54.090;13.382;2023-04-15T03:09:54;7.40;99.90
52321;DHT22;38261;54.090;13.382;2023-04-15T03:11:16;7.40;99.90
52321;DHT22;38261;54.090;13.382;2023-04-15T03:12:39;7.40;99.90
52321;DHT22;38261;54.090;13.382;2023-04-15T03:14:01;7.50;99.90
52321;DHT22;38261;54.090;13.382;2023-04-15T03:15:23;7.40;99.90
52321;DHT22;38261;54.090;13.382;2023-04-15T03:16:46;7.50;99.90
52321;DHT22;38261;54.090;13.382;2023-04-15T03:18:08;7.40;99.90
52321;DHT22;38261;54.090;13.382;2023-04-15T03:19:30;7.40;99.90
52321;DHT22;38261;54.090;13.382;2023-04-15T03:20:52;7.40;99.90
52321;DHT22;38261;54.090;13.382;2023-04-15T03:22:14;7.40;99.90
52321;DHT22;38261;54.090;13.382;2023-04-15T03:23:37;7.40;99.90
52321;DHT22;38261;54.090;13.382;2023-04-15T03:24:59;7.50;99.90
52321;DHT22;38261;54.090;13.382;2023-04-15T03:26:30;7.50;99.90
52321;DHT22;38261;54.090;13.382;2023-04-15T03:27:53;7.50;99.90
52321;DHT22;38261;54.090;13.382;2023-04-15T03:29:15;7.40;99.90
52321;DHT22;38261;54.090;13.382;2023-04-15T03:30:37;7.50;99.90
52321;DHT22;38261;54.090;13.382;2023-04-15T03:31:59;7.50;99.90
52321;DHT22;38261;54.090;13.382;2023-04-15T03:33:22;7.50;99.90
52321;DHT22;38261;54.090;13.382;2023-04-15T03:34:44;7.50;99.90
52321;DHT22;38261;54.090;13.382;2023-04-15T03:36:06;7.50;99.90
52321;DHT22;38261;54.090;13.382;2023-04-15T03:37:28;7.50;99.90
52321;DHT22;38261;54.090;13.382;2023-04-15T03:38:50;7.50;99.90
52321;DHT22;38261;54.090;13.382;2023-04-15T03:40:13;7.50;99.90
52321;DHT22;38261;54.090;13.382;2023-04-15T03:41:36;7.50;99.90
52321;DHT22;38261;54.090;13.382;2023-04-15T03:42:58;7.50;99.90
52321;DHT22;38261;54.090;13.382;2023-04-15T03:44:25;7.50;99.90
52321;DHT22;38261;54.090;13.382;2023-04-15T03:45:47;7.50;99.90
52321;DHT22;38261;54.090;13.382;2023-04-15T03:47:09;7.50;99.90
52321;DHT22;38261;54.090;13.382;2023-04-15T03:48:32;7.50;99.90
52321;DHT22;38261;54.090;13.382;2023-04-15T03:49:54;7.50;99.90
52321;DHT22;38261;54.090;13.382;2023-04-15T03:51:17;7.50;99.90
52321;DHT22;38261;54.090;13.382;2023-04-15T03:52:39;7.50;99.90
52321;DHT22;38261;54.090;13.382;2023-04-15T03:54:01;7.50;99.90
52321;DHT22;38261;54.090;13.382;2023-04-15T03:55:24;7.40;99.90
52321;DHT22;38261;54.090;13.382;2023-04-15T03:56:47;7.50;99.90
52321;DHT22;38261;54.090;13.382;2023-04-15T03:58:09;7.50;99.90
52321;DHT22;38261;54.090;13.382;2023-04-15T03:59:33;7.50;99.90
52321;DHT22;38261;54.090;13.382;2023-04-15T04:00:56;7.50;99.90
52321;DHT22;38261;54.090;13.382;2023-04-15T04:02:18;7.50;99.90
52321;DHT22;38261;54.090;13.382;2023-04-15T04:03:41;7.40;99.90
52321;DHT22;38261;54.090;13.382;2023-04-15T04:05:03;7.50;99.90
52321;DHT22;38261;54.090;13.382;2023-04-15T04:06:26;7.40;99.90
52321;DHT22;38261;54.090;13.382;2023-04-15T04:07:48;7.40;99.90
52321;DHT22;38261;54.090;13.382;2023-04-15T04:09:10;7.40;99.90
52321;DHT22;38261;54.090;13.382;2023-04-15T04:10:32;7.40;99.90
52321;DHT22;38261;54.090;13.382;2023-04-15T04:11:55;7.50;99.90
52321;DHT22;38261;54.090;13.382;2023-04-15T04:13:17;7.50;99.90
52321;DHT22;38261;54.090;13.382;2023-04-15T04:14:39;7.50;99.90
52321;DHT22;38261;54.090;13.382;2023-04-15T04:16:02;7.50;99.90
52321;DHT22;38261;54.090;13.382;2023-04-15T04:17:25;7.60;99.90
52321;DHT22;38261;54.090;13.382;2023-04-15T04:18:48;7.50;99.90
52321;DHT22;38261;54.090;13.382;2023-04-15T04:20:10;7.60;99.90
52321;DHT22;38261;54.090;13.382;2023-04-15T04:21:33;7.60;99.90
52321;DHT22;38261;54.090;13.382;2023-04-15T04:22:55;7.60;99.90
52321;DHT22;38261;54.090;13.382;2023-04-15T04:24:17;7.60;99.90
52321;DHT22;38261;54.090;13.382;2023-04-15T04:25:39;7.60;99.90
52321;DHT22;38261;54.090;13.382;2023-04-15T04:27:02;7.60;99.90
52321;DHT22;38261;54.090;13.382;2023-04-15T04:28:24;7.60;99.90
52321;DHT22;38261;54.090;13.382;2023-04-15T04:29:46;7.60;99.90
52321;DHT22;38261;54.090;13.382;2023-04-15T04:31:10;7.70;99.90
52321;DHT22;38261;54.090;13.382;2023-04-15T04:32:32;7.70;99.90
52321;DHT22;38261;54.090;13.382;2023-04-15T04:33:55;7.70;99.90
52321;DHT22;38261;54.090;13.382;2023-04-15T04:35:17;7.80;99.90
52321;DHT22;38261;54.090;13.382;2023-04-15T04:36:39;7.80;99.90
52321;DHT22;38261;54.090;13.382;2023-04-15T04:38:01;7.80;99.90
52321;DHT22;38261;54.090;13.382;2023-04-15T04:39:23;7.80;99.90
52321;DHT22;38261;54.090;13.382;2023-04-15T04:40:45;7.90;99.90
52321;DHT22;38261;54.090;13.382;2023-04-15T04:42:07;7.90;99.90
52321;DHT22;38261;54.090;13.382;2023-04-15T04:43:29;7.90;99.90
52321;DHT22;38261;54.090;13.382;2023-04-15T04:44:51;8.00;99.90
52321;DHT22;38261;54.090;13.382;2023-04-15T04:46:13;8.10;99.90
52321;DHT22;38261;54.090;13.382;2023-04-15T04:47:36;8.10;99.90
52321;DHT22;38261;54.090;13.382;2023-04-15T04:48:58;8.10;99.90
52321;DHT22;38261;54.090;13.382;2023-04-15T04:50:20;8.20;99.90
52321;DHT22;38261;54.090;13.382;2023-04-15T04:51:42;8.20;99.90
52321;DHT22;38261;54.090;13.382;2023-04-15T04:53:04;8.30;99.90
52321;DHT22;38261;54.090;13.382;2023-04-15T04:54:26;8.30;99.90
52321;DHT22;38261;54.090;13.382;2023-04-15T04:55:49;8.30;99.90
52321;DHT22;38261;54.090;13.382;2023-04-15T04:57:11;8.30;99.90
52321;DHT22;38261;54.090;13.382;2023-04-15T04:58:34;8.40;99.90
52321;DHT22;38261;54.090;13.382;2023-04-15T04:59:56;8.40;99.90
52321;DHT22;38261;54.090;13.382;2023-04-15T05:01:18;8.50;99.90
52321;DHT22;38261;54.090;13.382;2023-04-15T05:02:40;8.50;99.90
52321;DHT22;38261;54.090;13.382;2023-04-15T05:04:05;8.60;99.90
52321;DHT22;38261;54.090;13.382;2023-04-15T05:05:28;8.60;99.90
52321;DHT22;38261;54.090;13.382;2023-04-15T05:06:50;8.70;99.90
52321;DHT22;38261;54.090;13.382;2023-04-15T05:08:12;8.80;99.90
52321;DHT22;38261;54.090;13.382;2023-04-15T05:09:34;9.10;99.90
52321;DHT22;38261;54.090;13.382;2023-04-15T05:10:57;9.30;99.90
52321;DHT22;38261;54.090;13.382;2023-04-15T05:12:19;9.60;99.90
52321;DHT22;38261;54.090;13.382;2023-04-15T05:13:41;9.80;99.90
52321;DHT22;38261;54.090;13.382;2023-04-15T05:15:05;10.10;99.90
52321;DHT22;38261;54.090;13.382;2023-04-15T05:16:27;10.50;99.90
52321;DHT22;38261;54.090;13.382;2023-04-15T05:17:49;10.80;99.90
52321;DHT22;38261;54.090;13.382;2023-04-15T05:19:12;11.00;99.90
52321;DHT22;38261;54.090;13.382;2023-04-15T05:20:34;11.20;99.90
52321;DHT22;38261;54.090;13.382;2023-04-15T05:21:56;11.40;99.90
52321;DHT22;38261;54.090;13.382;2023-04-15T05:23:18;11.50;99.90
52321;DHT22;38261;54.090;13.382;2023-04-15T05:24:40;11.60;99.90
52321;DHT22;38261;54.090;13.382;2023-04-15T05:26:02;11.70;99.90
52321;DHT22;38261;54.090;13.382;2023-04-15T05:27:24;11.70;99.90
52321;DHT22;38261;54.090;13.382;2023-04-15T05:28:47;11.90;99.90
52321;DHT22;38261;54.090;13.382;2023-04-15T05:30:09;11.90;99.90
52321;DHT22;38261;54.090;13.382;2023-04-15T05:31:34;11.90;99.90
52321;DHT22;38261;54.090;13.382;2023-04-15T05:32:57;11.90;99.90
52321;DHT22;38261;54.090;13.382;2023-04-15T05:34:19;11.90;99.90
52321;DHT22;38261;54.090;13.382;2023-04-15T05:35:41;12.00;99.90
52321;DHT22;38261;54.090;13.382;2023-04-15T05:37:03;12.20;99.90
52321;DHT22;38261;54.090;13.382;2023-04-15T05:38:25;12.30;99.90
52321;DHT22;38261;54.090;13.382;2023-04-15T05:39:47;12.30;99.90
52321;DHT22;38261;54.090;13.382;2023-04-15T05:41:10;12.40;99.90
52321;DHT22;38261;54.090;13.382;2023-04-15T05:42:32;12.50;99.90
52321;DHT22;38261;54.090;13.382;2023-04-15T05:43:54;12.50;99.90
52321;DHT22;38261;54.090;13.382;2023-04-15T05:45:16;12.50;99.90
52321;DHT22;38261;54.090;13.382;2023-04-15T05:46:38;12.50;99.90
52321;DHT22;38261;54.090;13.382;2023-04-15T05:48:01;12.40;99.90
52321;DHT22;38261;54.090;13.382;2023-04-15T05:49:23;12.40;99.90
52321;DHT22;38261;54.090;13.382;2023-04-15T05:50:45;12.30;99.90
52321;DHT22;38261;54.090;13.382;2023-04-15T05:52:08;12.20;99.90
52321;DHT22;38261;54.090;13.382;2023-04-15T05:53:30;12.00;99.90
52321;DHT22;38261;54.090;13.382;2023-04-15T05:54:52;11.90;99.90
52321;DHT22;38261;54.090;13.382;2023-04-15T05:56:14;11.70;99.90
52321;DHT22;38261;54.090;13.382;2023-04-15T05:57:36;11.50;99.90
52321;DHT22;38261;54.090;13.382;2023-04-15T05:58:59;11.20;99.90
52321;DHT22;38261;54.090;13.382;2023-04-15T06:00:21;11.00;99.90
52321;DHT22;38261;54.090;13.382;2023-04-15T06:01:43;10.90;99.90
52321;DHT22;38261;54.090;13.382;2023-04-15T06:03:06;10.80;99.90
52321;DHT22;38261;54.090;13.382;2023-04-15T06:04:28;10.70;99.90
52321;DHT22;38261;54.090;13.382;2023-04-15T06:05:51;10.70;99.90
52321;DHT22;38261;54.090;13.382;2023-04-15T06:07:13;10.60;99.90
52321;DHT22;38261;54.090;13.382;2023-04-15T06:08:36;10.60;99.90
52321;DHT22;38261;54.090;13.382;2023-04-15T06:09:58;10.70;99.90
52321;DHT22;38261;54.090;13.382;2023-04-15T06:11:20;10.70;99.90
52321;DHT22;38261;54.090;13.382;2023-04-15T06:12:42;10.70;99.90
52321;DHT22;38261;54.090;13.382;2023-04-15T06:14:04;10.70;99.90
52321;DHT22;38261;54.090;13.382;2023-04-15T06:15:27;10.70;99.90
52321;DHT22;38261;54.090;13.382;2023-04-15T06:16:49;10.60;99.90
52321;DHT22;38261;54.090;13.382;2023-04-15T06:18:11;10.60;99.90
52321;DHT22;38261;54.090;13.382;2023-04-15T06:19:34;10.60;99.90
52321;DHT22;38261;54.090;13.382;2023-04-15T06:20:57;10.60;99.90
52321;DHT22;38261;54.090;13.382;2023-04-15T06:22:22;10.60;99.90
52321;DHT22;38261;54.090;13.382;2023-04-15T06:23:44;10.60;99.90
52321;DHT22;38261;54.090;13.382;2023-04-15T06:25:07;10.60;99.90
52321;DHT22;38261;54.090;13.382;2023-04-15T06:26:30;10.60;99.90
52321;DHT22;38261;54.090;13.382;2023-04-15T06:27:52;10.70;99.90
52321;DHT22;38261;54.090;13.382;2023-04-15T06:29:14;10.70;99.90
52321;DHT22;38261;54.090;13.382;2023-04-15T06:30:36;10.70;99.90
52321;DHT22;38261;54.090;13.382;2023-04-15T06:31:59;10.70;99.90
52321;DHT22;38261;54.090;13.382;2023-04-15T06:33:21;10.70;99.90
52321;DHT22;38261;54.090;13.382;2023-04-15T06:34:43;10.70;99.90
52321;DHT22;38261;54.090;13.382;2023-04-15T06:36:05;10.80;99.90
52321;DHT22;38261;54.090;13.382;2023-04-15T06:37:28;10.70;99.90
52321;DHT22;38261;54.090;13.382;2023-04-15T06:38:50;10.80;99.90
52321;DHT22;38261;54.090;13.382;2023-04-15T06:40:12;10.70;99.90
52321;DHT22;38261;54.090;13.382;2023-04-15T06:41:35;10.70;99.90
52321;DHT22;38261;54.090;13.382;2023-04-15T06:42:57;10.70;99.90
52321;DHT22;38261;54.090;13.382;2023-04-15T06:44:19;10.80;99.90
52321;DHT22;38261;54.090;13.382;2023-04-15T06:45:41;10.80;99.90
52321;DHT22;38261;54.090;13.382;2023-04-15T06:47:04;10.80;99.90
52321;DHT22;38261;54.090;13.382;2023-04-15T06:48:26;10.90;99.90
52321;DHT22;38261;54.090;13.382;2023-04-15T06:49:48;10.90;99.90
52321;DHT22;38261;54.090;13.382;2023-04-15T06:51:10;11.00;99.90
52321;DHT22;38261;54.090;13.382;2023-04-15T06:52:32;11.10;99.90
52321;DHT22;38261;54.090;13.382;2023-04-15T06:53:55;11.20;99.90
52321;DHT22;38261;54.090;13.382;2023-04-15T06:55:17;11.30;99.90
52321;DHT22;38261;54.090;13.382;2023-04-15T06:56:40;11.40;99.90
52321;DHT22;38261;54.090;13.382;2023-04-15T06:58:02;11.50;99.90
52321;DHT22;38261;54.090;13.382;2023-04-15T06:59:25;11.50;99.90
52321;DHT22;38261;54.090;13.382;2023-04-15T07:00:48;11.60;99.90
52321;DHT22;38261;54.090;13.382;2023-04-15T07:02:11;11.60;99.90
52321;DHT22;38261;54.090;13.382;2023-04-15T07:03:34;11.70;99.90
52321;DHT22;38261;54.090;13.382;2023-04-15T07:04:57;11.70;99.90
52321;DHT22;38261;54.090;13.382;2023-04-15T07:06:19;11.70;99.90
52321;DHT22;38261;54.090;13.382;2023-04-15T07:07:42;11.80;99.90
52321;DHT22;38261;54.090;13.382;2023-04-15T07:09:05;11.80;99.90
52321;DHT22;38261;54.090;13.382;2023-04-15T07:10:27;11.90;99.90
52321;DHT22;38261;54.090;13.382;2023-04-15T07:11:49;11.90;99.90
52321;DHT22;38261;54.090;13.382;2023-04-15T07:13:12;12.00;99.90
52321;DHT22;38261;54.090;13.382;2023-04-15T07:14:34;12.00;99.90
52321;DHT22;38261;54.090;13.382;2023-04-15T07:15:57;12.10;99.90
52321;DHT22;38261;54.090;13.382;2023-04-15T07:17:20;12.20;99.90
52321;DHT22;38261;54.090;13.382;2023-04-15T07:18:43;12.20;99.90
52321;DHT22;38261;54.090;13.382;2023-04-15T07:20:06;12.30;99.90
52321;DHT22;38261;54.090;13.382;2023-04-15T07:21:28;12.20;99.90
52321;DHT22;38261;54.090;13.382;2023-04-15T07:22:50;12.20;99.90
52321;DHT22;38261;54.090;13.382;2023-04-15T07:24:12;12.20;99.90
52321;DHT22;38261;54.090;13.382;2023-04-15T07:25:39;12.30;99.90
52321;DHT22;38261;54.090;13.382;2023-04-15T07:27:01;12.30;99.90
52321;DHT22;38261;54.090;13.382;2023-04-15T07:28:23;12.40;99.90
52321;DHT22;38261;54.090;13.382;2023-04-15T07:29:45;12.40;99.90
52321;DHT22;38261;54.090;13.382;2023-04-15T07:31:08;12.50;99.90
52321;DHT22;38261;54.090;13.382;2023-04-15T07:32:30;12.50;99.90
52321;DHT22;38261;54.090;13.382;2023-04-15T07:33:52;12.50;99.90
52321;DHT22;38261;54.090;13.382;2023-04-15T07:35:15;12.50;99.90
52321;DHT22;38261;54.090;13.382;2023-04-15T07:36:37;12.40;99.90
52321;DHT22;38261;54.090;13.382;2023-04-15T07:37:59;12.40;99.90
52321;DHT22;38261;54.090;13.382;2023-04-15T07:39:22;12.40;99.90
52321;DHT22;38261;54.090;13.382;2023-04-15T07:40:45;12.40;99.90
52321;DHT22;38261;54.090;13.382;2023-04-15T07:42:07;12.40;99.90
52321;DHT22;38261;54.090;13.382;2023-04-15T07:43:30;12.50;99.90
52321;DHT22;38261;54.090;13.382;2023-04-15T07:44:52;12.60;99.90
52321;DHT22;38261;54.090;13.382;2023-04-15T07:46:14;12.60;99.90
52321;DHT22;38261;54.090;13.382;2023-04-15T07:47:37;12.50;99.90
52321;DHT22;38261;54.090;13.382;2023-04-15T07:48:59;12.40;99.90
52321;DHT22;38261;54.090;13.382;2023-04-15T07:50:23;12.40;99.90
52321;DHT22;38261;54.090;13.382;2023-04-15T07:51:45;12.40;99.90
52321;DHT22;38261;54.090;13.382;2023-04-15T07:53:08;12.40;99.90
52321;DHT22;38261;54.090;13.382;2023-04-15T07:54:30;12.50;99.90
52321;DHT22;38261;54.090;13.382;2023-04-15T07:55:54;12.40;99.90
52321;DHT22;38261;54.090;13.382;2023-04-15T07:57:16;12.40;99.90
52321;DHT22;38261;54.090;13.382;2023-04-15T07:58:39;12.30;99.90
52321;DHT22;38261;54.090;13.382;2023-04-15T08:00:02;12.30;99.90
52321;DHT22;38261;54.090;13.382;2023-04-15T08:01:26;12.30;99.90
52321;DHT22;38261;54.090;13.382;2023-04-15T08:02:49;12.20;99.90
52321;DHT22;38261;54.090;13.382;2023-04-15T08:04:13;12.20;99.90
52321;DHT22;38261;54.090;13.382;2023-04-15T08:05:36;12.20;99.90
52321;DHT22;38261;54.090;13.382;2023-04-15T08:06:58;12.10;99.90
52321;DHT22;38261;54.090;13.382;2023-04-15T08:08:20;12.10;99.90
52321;DHT22;38261;54.090;13.382;2023-04-15T08:09:43;12.10;99.90
52321;DHT22;38261;54.090;13.382;2023-04-15T08:11:05;12.10;99.90
52321;DHT22;38261;54.090;13.382;2023-04-15T08:12:27;12.00;99.90
52321;DHT22;38261;54.090;13.382;2023-04-15T08:13:49;12.00;99.90
52321;DHT22;38261;54.090;13.382;2023-04-15T08:15:13;12.10;99.90
52321;DHT22;38261;54.090;13.382;2023-04-15T08:16:35;12.20;99.90
52321;DHT22;38261;54.090;13.382;2023-04-15T08:17:57;12.20;99.90
52321;DHT22;38261;54.090;13.382;2023-04-15T08:19:21;12.20;99.90
52321;DHT22;38261;54.090;13.382;2023-04-15T08:20:45;12.20;99.90
52321;DHT22;38261;54.090;13.382;2023-04-15T08:22:07;12.20;99.90
52321;DHT22;38261;54.090;13.382;2023-04-15T08:23:37;12.30;99.90
52321;DHT22;38261;54.090;13.382;2023-04-15T08:24:59;12.30;99.90
52321;DHT22;38261;54.090;13.382;2023-04-15T08:26:22;12.20;99.90
52321;DHT22;38261;54.090;13.382;2023-04-15T08:27:44;12.10;99.90
52321;DHT22;38261;54.090;13.382;2023-04-15T08:29:07;12.00;99.90
52321;DHT22;38261;54.090;13.382;2023-04-15T08:30:30;12.00;99.90
52321;DHT22;38261;54.090;13.382;2023-04-15T08:31:53;11.90;99.90
52321;DHT22;38261;54.090;13.382;2023-04-15T08:33:15;11.80;99.90
52321;DHT22;38261;54.090;13.382;2023-04-15T08:34:37;11.80;99.90
52321;DHT22;38261;54.090;13.382;2023-04-15T08:35:59;11.80;99.90
52321;DHT22;38261;54.090;13.382;2023-04-15T08:37:22;11.80;99.90
52321;DHT22;38261;54.090;13.382;2023-04-15T08:38:44;11.70;99.90